WetterOnline ( https://www.wetteronline.de )

Wetter aktuell Osnabrück

Aktuelles Wetter: Belm (103m)

6-stündlich | Neueste Meldungen
Ortszeit Temperatur Wetter
Di, 31.03. 14:00 4.9° C bewölkt
Di, 31.03. 8:00 -1.3° C wolkenlos
Di, 31.03. 2:00 0.8° C wolkenlos
Mo, 30.03. 20:00 2.6° C Regen
Mo, 30.03. 14:00 4.7° C bedeckt
Mo, 30.03. 8:00 -3.0° C bedeckt
Mo, 30.03. 2:00 -2.0° C wolkenlos
So, 29.03. 20:00 2.7° C wolkenlos
Ortszeit Temperatur Wetter
Di, 31.03. 16:00 6.4° C wolkig
Di, 31.03. 15:50 6.4° C wolkig
Di, 31.03. 15:40 6.1° C leicht bewölkt
Di, 31.03. 15:30 5.9° C wolkenlos
Di, 31.03. 15:20 5.9° C wolkenlos
Di, 31.03. 15:10 6.1° C leicht bewölkt
Di, 31.03. 15:00 5.3° C bewölkt
Di, 31.03. 14:30 5.8° C leicht bewölkt
Di, 31.03. 14:00 4.9° C bewölkt
Di, 31.03. 13:30 5.8° C wolkig
Di, 31.03. 13:00 4.8° C leicht bewölkt
Ortszeit Relative Feuchte Sichtweite
Di, 31.03. 14:00 47% 60 km
Di, 31.03. 8:00 84% 40 km
Di, 31.03. 2:00 94% 14 km
Mo, 30.03. 20:00 95% 3.4 km
Mo, 30.03. 14:00 77% 27 km
Mo, 30.03. 8:00 70% 40 km
Mo, 30.03. 2:00 55% 70 km
So, 29.03. 20:00 44% 70 km
Ortszeit Relative Feuchte Sichtweite
Di, 31.03. 16:00 52% 65 km
Di, 31.03. 15:50 52% -
Di, 31.03. 15:40 43% -
Di, 31.03. 15:30 47% 35 km
Di, 31.03. 15:20 47% -
Di, 31.03. 15:10 47% -
Di, 31.03. 15:00 55% 55 km
Di, 31.03. 14:30 43% 45 km
Di, 31.03. 14:00 47% 60 km
Di, 31.03. 13:30 51% 40 km
Di, 31.03. 13:00 56% 45 km
Ortszeit Niederschlagsmenge Niederschlagsart
Di, 31.03. 14:00 0.0 l/m2 in 6 Std. -
Di, 31.03. 8:00 0.5 l/m2 in 12 Std. -
Di, 31.03. 2:00 0.5 l/m2 in 6 Std. Regen
Mo, 30.03. 20:00 8 l/m2 in 12 Std. Regen
Mo, 30.03. 14:00 0.1 l/m2 in 6 Std. Schnee, Niederschlag
Mo, 30.03. 8:00 0.0 l/m2 in 12 Std. -
Mo, 30.03. 2:00 0.0 l/m2 in 6 Std. -
So, 29.03. 20:00 3 l/m2 in 12 Std. Schnee, Regen
Ortszeit Niederschlagsmenge Niederschlagsart
Di, 31.03. 16:00 0.0 l/m2 in 1 Std. -
Di, 31.03. 15:50 keine Meldung -
Di, 31.03. 15:40 keine Meldung -
Di, 31.03. 15:30 0.0 l/m2 in 1 Std. -
Di, 31.03. 15:20 keine Meldung -
Di, 31.03. 15:10 keine Meldung -
Di, 31.03. 15:00 0.0 l/m2 in 1 Std. -
Di, 31.03. 14:30 0.0 l/m2 in 1 Std. -
Di, 31.03. 14:00 0.0 l/m2 in 1 Std. -
Di, 31.03. 13:30 0.0 l/m2 in 1 Std. -
Di, 31.03. 13:00 0.0 l/m2 in 1 Std. -
Ortszeit Stärke Spitze Richtung
km/h Bft. km/h Grad Sektor
Di, 31.03. 14:00 13 3 19 20° N
Di, 31.03. 8:00 6 1 19 20° N
Di, 31.03. 2:00 9 2 19 20° N
Mo, 30.03. 20:00 7 2 32 340° N
Mo, 30.03. 14:00 20 4 30 280° W
Mo, 30.03. 8:00 4 1 7 170° S
Mo, 30.03. 2:00 4 1 25 350° N
So, 29.03. 20:00 15 3 50 20° N
Ortszeit Stärke Spitze Richtung
km/h Bft. km/h Grad Sektor
Di, 31.03. 16:00 11 2 22 20° N
Di, 31.03. 15:50 11 2 - 20° N
Di, 31.03. 15:40 6 1 - 10° N
Di, 31.03. 15:30 7 2 19 350° N
Di, 31.03. 15:20 7 2 - 350° N
Di, 31.03. 15:10 9 2 - 340° N
Di, 31.03. 15:00 11 2 22 10° N
Di, 31.03. 14:30 7 2 22 30° NO
Di, 31.03. 14:00 13 3 19 20° N
Di, 31.03. 13:30 7 2 14 10° N
Di, 31.03. 13:00 6 1 15 100° O
Ortszeit Untergrenze Bedeckung Gattung
total tief tief mittel hoch
Di, 31.03. 14:00 1350 m 7/8 7/8 - - -
Di, 31.03. 8:00 - 0/8 0/8 - - -
Di, 31.03. 2:00 - 0/8 0/8 - - -
Mo, 30.03. 20:00 240 m 7/8 7/8 - - -
Mo, 30.03. 14:00 510 m 8/8 8/8 - - -
Mo, 30.03. 8:00 960 m 8/8 8/8 - - -
Mo, 30.03. 2:00 - 0/8 0/8 - - -
So, 29.03. 20:00 - 0/8 0/8 - - -
Ortszeit Bedeckungsgrad in Achtel und Wolkenuntergrenze
Di, 31.03. 16:00 6(1410m)
Di, 31.03. 15:50 6(1410m)
Di, 31.03. 15:40 4(1440m)
Di, 31.03. 15:30 keine Wolken
Di, 31.03. 15:20 keine Wolken
Di, 31.03. 15:10 2(1320m)
Di, 31.03. 15:00 7(1380m)
Di, 31.03. 14:30 4(1470m)
Di, 31.03. 14:00 7(1350m)
Di, 31.03. 13:30 5(1260m)
Di, 31.03. 13:00 1(870m)
Ortszeit Luftdruck NN (hPa) Tendenz (hPa in 3 Std.)
Di, 31.03. 14:00 1031 - 0,9
Di, 31.03. 8:00 1032 + 1,4
Di, 31.03. 2:00 1030 + 1,4
Mo, 30.03. 20:00 1026 + 0,1
Mo, 30.03. 14:00 1028 - 2,1
Mo, 30.03. 8:00 1032 - 1,0
Mo, 30.03. 2:00 1034 - 0,2
So, 29.03. 20:00 1032 + 1,9
Ortszeit Luftdruck NN (hPa) Tendenz (hPa in 3 Std.)
Di, 31.03. 16:00 1030 - 1,2
Di, 31.03. 15:50 1030 keine Meldung
Di, 31.03. 15:40 1030 keine Meldung
Di, 31.03. 15:30 1031 - 1,1
Di, 31.03. 15:20 1031 keine Meldung
Di, 31.03. 15:10 1031 keine Meldung
Di, 31.03. 15:00 1031 - 1,2
Di, 31.03. 14:30 1031 - 1,0
Di, 31.03. 14:00 1031 - 0,9
Di, 31.03. 13:30 1031 - 0,9
Di, 31.03. 13:00 1032 - 0,7
Ortszeit Schneehöhe (cm)
Di, 31.03. 14:00 0
Di, 31.03. 8:00 0
Di, 31.03. 2:00 0
Mo, 30.03. 20:00 0
Mo, 30.03. 14:00 0
Mo, 30.03. 8:00 0
Mo, 30.03. 2:00 0
So, 29.03. 20:00 0
Ortszeit Schneehöhe (cm)
Di, 31.03. 16:00 0
Di, 31.03. 15:50 0
Di, 31.03. 15:40 0
Di, 31.03. 15:30 0
Di, 31.03. 15:20 0
Di, 31.03. 15:10 0
Di, 31.03. 15:00 0
Di, 31.03. 14:30 0
Di, 31.03. 14:00 0
Di, 31.03. 13:30 0
Di, 31.03. 13:00 0
Link zu dieser Seite / Seite empfehlen

Das Wetter in ...